createdAt,value
2017-11-20T00:01:12.831Z,4.60
2017-11-20T00:03:41.123Z,4.60
2017-11-20T00:06:09.428Z,4.60
2017-11-20T00:08:37.708Z,4.60
2017-11-20T00:11:05.983Z,4.60
2017-11-20T00:13:34.315Z,4.60
2017-11-20T00:16:03.383Z,4.60
2017-11-20T00:18:31.682Z,4.60
2017-11-20T00:20:59.988Z,4.60
2017-11-20T00:23:28.268Z,4.70
2017-11-20T00:25:56.563Z,4.70
2017-11-20T00:28:24.896Z,4.60
2017-11-20T00:30:53.185Z,4.60
2017-11-20T00:33:21.510Z,4.60
2017-11-20T00:35:49.844Z,4.50
2017-11-20T00:38:18.911Z,4.60
2017-11-20T00:40:47.187Z,4.50
2017-11-20T00:43:15.491Z,4.50
2017-11-20T00:45:43.796Z,4.50
2017-11-20T00:48:12.081Z,4.50
2017-11-20T00:50:40.355Z,4.50
2017-11-20T00:53:08.675Z,4.40
2017-11-20T00:55:37.731Z,4.40
2017-11-20T00:58:06.007Z,4.30
2017-11-20T01:00:34.328Z,4.40
2017-11-20T01:03:02.623Z,4.40
2017-11-20T01:05:30.921Z,4.40
2017-11-20T01:07:59.228Z,4.30
2017-11-20T01:10:27.514Z,4.30
2017-11-20T01:12:55.835Z,4.30
2017-11-20T01:15:24.870Z,4.30
2017-11-20T01:17:53.198Z,4.30
2017-11-20T01:20:21.520Z,4.30
2017-11-20T01:22:49.806Z,4.30
2017-11-20T01:25:18.125Z,4.40
2017-11-20T01:27:46.424Z,4.30
2017-11-20T01:30:14.724Z,4.40
2017-11-20T01:32:43.042Z,4.40
2017-11-20T01:35:11.352Z,4.30
2017-11-20T01:37:39.659Z,4.30
2017-11-20T01:40:07.939Z,4.30
2017-11-20T01:42:36.235Z,4.40
2017-11-20T01:45:04.590Z,4.30
2017-11-20T01:47:32.870Z,4.40
2017-11-20T01:50:01.169Z,4.40
2017-11-20T01:52:33.031Z,4.40
2017-11-20T01:55:01.332Z,4.50
2017-11-20T01:57:29.628Z,4.50
2017-11-20T01:59:57.929Z,4.50
2017-11-20T02:02:26.245Z,4.50
2017-11-20T02:04:54.549Z,4.60
2017-11-20T02:07:22.882Z,4.60
2017-11-20T02:09:51.951Z,4.50
2017-11-20T02:12:20.260Z,4.50
2017-11-20T02:14:48.556Z,4.40
2017-11-20T02:17:16.896Z,4.40
2017-11-20T02:19:45.951Z,4.30
2017-11-20T02:22:14.268Z,4.30
2017-11-20T02:24:42.597Z,4.10
2017-11-20T02:27:10.884Z,4.10
2017-11-20T02:29:39.190Z,4.10
2017-11-20T02:32:07.496Z,4.00
2017-11-20T02:34:38.883Z,4.00
2017-11-20T02:37:07.171Z,4.00
2017-11-20T02:39:35.452Z,3.90
2017-11-20T02:42:03.746Z,3.90
2017-11-20T02:44:32.036Z,3.90
2017-11-20T02:47:00.338Z,3.90
2017-11-20T02:49:28.640Z,3.90
2017-11-20T02:51:56.952Z,3.90
2017-11-20T02:54:25.273Z,3.90
2017-11-20T02:56:53.568Z,3.90
2017-11-20T02:59:21.867Z,3.90
2017-11-20T03:01:50.194Z,3.90
2017-11-20T03:04:18.525Z,3.90
2017-11-20T03:06:47.572Z,3.80
2017-11-20T03:09:15.907Z,3.80
2017-11-20T03:11:44.198Z,3.80
2017-11-20T03:14:12.492Z,3.80
2017-11-20T03:16:40.829Z,3.80
2017-11-20T03:19:09.112Z,3.80
2017-11-20T03:21:37.408Z,3.80
2017-11-20T03:24:05.752Z,3.80
2017-11-20T03:26:34.793Z,3.80
2017-11-20T03:29:03.100Z,3.80
2017-11-20T03:31:31.430Z,3.80
2017-11-20T03:34:00.005Z,3.80
2017-11-20T03:36:28.312Z,3.90
2017-11-20T03:38:56.652Z,3.90
2017-11-20T03:41:24.952Z,3.90
2017-11-20T03:43:53.280Z,3.90
2017-11-20T03:46:22.455Z,4.00
2017-11-20T03:48:50.740Z,4.00
2017-11-20T03:51:19.024Z,4.00
2017-11-20T03:53:47.361Z,4.00
2017-11-20T03:56:15.632Z,4.00
2017-11-20T03:58:43.916Z,4.00
2017-11-20T04:01:13.011Z,3.90
2017-11-20T04:03:41.327Z,3.90
2017-11-20T04:06:09.644Z,3.90
2017-11-20T04:08:37.946Z,3.90
2017-11-20T04:11:07.022Z,3.80
2017-11-20T04:13:35.311Z,3.80
2017-11-20T04:16:03.596Z,3.80
2017-11-20T04:18:31.938Z,3.80
2017-11-20T04:21:00.228Z,3.80
2017-11-20T04:23:28.567Z,3.80
2017-11-20T04:25:56.884Z,3.70
2017-11-20T04:28:25.953Z,3.80
2017-11-20T04:30:54.304Z,3.70
2017-11-20T04:33:23.404Z,3.70
2017-11-20T04:35:51.760Z,3.70
2017-11-20T04:38:20.040Z,3.80
2017-11-20T04:40:48.344Z,3.80
2017-11-20T04:43:16.636Z,3.80
2017-11-20T04:45:44.960Z,3.80
2017-11-20T04:48:13.263Z,3.80
2017-11-20T04:50:41.548Z,3.80
2017-11-20T04:53:09.860Z,3.80
2017-11-20T04:55:38.141Z,3.80
2017-11-20T04:58:06.447Z,3.80
2017-11-20T05:00:35.505Z,3.90
2017-11-20T05:03:03.796Z,3.90
2017-11-20T05:05:32.116Z,3.90
2017-11-20T05:08:00.397Z,3.90
2017-11-20T05:10:28.687Z,3.90
2017-11-20T05:12:57.027Z,3.90
2017-11-20T05:15:25.317Z,3.80
2017-11-20T05:17:53.605Z,3.80
2017-11-20T05:20:21.932Z,3.80
2017-11-20T05:22:50.216Z,3.80
2017-11-20T05:25:18.499Z,3.80
2017-11-20T05:27:47.572Z,3.80
2017-11-20T05:30:15.854Z,3.80
2017-11-20T05:32:44.190Z,3.80
2017-11-20T05:35:12.506Z,3.80
2017-11-20T05:37:41.630Z,3.80
2017-11-20T05:40:10.739Z,3.80
2017-11-20T05:42:39.046Z,3.80
2017-11-20T05:45:08.112Z,3.80
2017-11-20T05:47:36.420Z,3.70
2017-11-20T05:50:04.704Z,3.80
2017-11-20T05:52:33.014Z,3.80
2017-11-20T05:55:01.351Z,3.70
2017-11-20T05:57:29.646Z,3.70
2017-11-20T05:59:57.943Z,3.70
2017-11-20T06:02:26.275Z,3.70
2017-11-20T06:04:54.599Z,3.70
2017-11-20T06:07:23.779Z,3.70
2017-11-20T06:09:52.113Z,3.70
2017-11-20T06:12:21.169Z,3.70
2017-11-20T06:14:49.477Z,3.60
2017-11-20T06:17:17.801Z,3.60
2017-11-20T06:19:46.109Z,3.60
2017-11-20T06:22:14.407Z,3.60
2017-11-20T06:24:42.712Z,3.60
2017-11-20T06:27:10.984Z,3.60
2017-11-20T06:29:39.303Z,3.60
2017-11-20T06:32:07.621Z,3.60
2017-11-20T06:34:36.696Z,3.60
2017-11-20T06:37:05.016Z,3.60
2017-11-20T06:39:33.289Z,3.60
2017-11-20T06:42:01.605Z,3.60
2017-11-20T06:44:29.950Z,3.60
2017-11-20T06:46:58.248Z,3.50
2017-11-20T06:49:26.605Z,3.60
2017-11-20T06:51:54.888Z,3.50
2017-11-20T06:54:23.163Z,3.50
2017-11-20T06:56:52.257Z,3.50
2017-11-20T06:59:20.572Z,3.50
2017-11-20T07:01:48.895Z,3.50
2017-11-20T07:04:17.198Z,3.50
2017-11-20T07:06:45.500Z,3.50
2017-11-20T07:09:13.816Z,3.50
2017-11-20T07:11:42.868Z,3.50
2017-11-20T07:14:11.169Z,3.50
2017-11-20T07:16:39.495Z,3.50
2017-11-20T07:19:08.088Z,3.50
2017-11-20T07:21:36.483Z,3.50
2017-11-20T07:24:04.849Z,3.40
2017-11-20T07:26:50.884Z,3.50
2017-11-20T07:29:36.827Z,3.50
2017-11-20T07:32:05.903Z,3.40
2017-11-20T07:34:52.318Z,3.40
2017-11-20T07:37:38.292Z,3.40
2017-11-20T07:40:17.396Z,3.50
2017-11-20T07:42:45.692Z,3.50
2017-11-20T07:45:14.757Z,3.40
2017-11-20T07:47:43.844Z,3.40
2017-11-20T07:50:12.890Z,3.40
2017-11-20T07:52:41.184Z,3.40
2017-11-20T07:55:10.263Z,3.40
2017-11-20T07:57:39.347Z,3.40
2017-11-20T08:00:08.396Z,3.50
2017-11-20T08:02:36.741Z,3.40
2017-11-20T08:05:05.013Z,3.40
2017-11-20T08:07:33.311Z,3.40
2017-11-20T08:10:02.384Z,3.40
2017-11-20T08:12:30.721Z,3.40
2017-11-20T08:14:59.003Z,3.40
2017-11-20T08:17:27.331Z,3.40
2017-11-20T08:19:55.729Z,3.40
2017-11-20T08:22:25.022Z,3.40
2017-11-20T08:24:54.940Z,3.40
2017-11-20T08:27:23.240Z,3.30
2017-11-20T08:29:52.645Z,3.40
2017-11-20T08:32:21.037Z,3.40
2017-11-20T08:34:49.698Z,3.30
2017-11-20T08:37:18.080Z,3.30
2017-11-20T08:39:46.399Z,3.30
2017-11-20T08:42:14.681Z,3.30
2017-11-20T08:44:43.784Z,3.30
2017-11-20T08:47:12.108Z,3.30
2017-11-20T08:49:40.400Z,3.30
2017-11-20T08:52:08.716Z,3.30
2017-11-20T08:54:37.059Z,3.30
2017-11-20T08:57:05.353Z,3.30
2017-11-20T08:59:33.648Z,3.30
2017-11-20T09:02:01.995Z,3.40
2017-11-20T09:04:30.295Z,3.40
2017-11-20T09:06:58.594Z,3.40
2017-11-20T09:09:26.956Z,3.40
2017-11-20T09:11:55.239Z,3.40
2017-11-20T09:14:23.578Z,3.40
2017-11-20T09:16:51.898Z,3.40
2017-11-20T09:19:20.237Z,3.40
2017-11-20T09:21:50.499Z,3.40
2017-11-20T09:24:18.828Z,3.40
2017-11-20T09:26:48.132Z,3.50
2017-11-20T09:29:16.428Z,3.50
2017-11-20T09:31:47.480Z,3.60
2017-11-20T09:34:24.946Z,3.50
2017-11-20T09:36:53.252Z,3.60
2017-11-20T09:39:21.545Z,3.60
2017-11-20T09:41:50.732Z,3.60
2017-11-20T09:44:19.025Z,3.60
2017-11-20T09:46:47.344Z,3.60
2017-11-20T09:49:15.781Z,3.70
2017-11-20T09:51:45.777Z,3.80
2017-11-20T09:54:14.100Z,3.70
2017-11-20T09:56:42.438Z,3.80
2017-11-20T09:59:10.731Z,3.80
2017-11-20T10:01:39.110Z,3.80
2017-11-20T10:04:09.111Z,3.80
2017-11-20T10:06:37.527Z,3.70
2017-11-20T10:09:06.596Z,3.80
2017-11-20T10:11:34.888Z,3.80
2017-11-20T10:14:03.968Z,3.80
2017-11-20T10:16:32.271Z,3.70
2017-11-20T10:19:00.613Z,3.70
2017-11-20T10:21:28.921Z,3.70
2017-11-20T10:23:57.290Z,3.60
2017-11-20T10:26:26.605Z,3.60
2017-11-20T10:28:54.888Z,3.60
2017-11-20T10:31:23.205Z,3.60
2017-11-20T10:33:51.512Z,3.60
2017-11-20T10:36:19.830Z,3.60
2017-11-20T10:38:49.284Z,3.60
2017-11-20T10:41:17.664Z,3.60
2017-11-20T10:43:46.728Z,3.60
2017-11-20T10:46:16.720Z,3.60
2017-11-20T10:48:45.879Z,3.60
2017-11-20T10:51:14.720Z,3.60
2017-11-20T10:53:43.072Z,3.60
2017-11-20T10:56:11.475Z,3.60
2017-11-20T10:58:39.788Z,3.60
2017-11-20T11:01:08.084Z,3.60
2017-11-20T11:03:39.603Z,3.60
2017-11-20T11:06:07.923Z,3.60
2017-11-20T11:08:36.988Z,3.60
2017-11-20T11:11:05.317Z,3.60
2017-11-20T11:13:33.624Z,3.60
2017-11-20T11:16:01.926Z,3.60
2017-11-20T11:18:30.336Z,3.60
2017-11-20T11:20:58.685Z,3.60
2017-11-20T11:23:26.980Z,3.60
2017-11-20T11:26:00.708Z,3.60
2017-11-20T11:28:29.037Z,3.60
2017-11-20T11:30:57.344Z,3.60
2017-11-20T11:33:25.715Z,3.60
2017-11-20T11:35:54.047Z,3.70
2017-11-20T11:38:23.107Z,3.70
2017-11-20T11:40:51.514Z,3.70
2017-11-20T11:43:19.842Z,3.70
2017-11-20T11:45:48.123Z,3.70
2017-11-20T11:48:16.779Z,3.70
2017-11-20T11:50:46.862Z,3.70
2017-11-20T11:53:15.165Z,3.70
2017-11-20T11:55:43.472Z,3.70
2017-11-20T11:58:11.894Z,3.60
2017-11-20T12:00:40.199Z,3.60
2017-11-20T12:03:08.532Z,3.60
2017-11-20T12:05:36.836Z,3.60
2017-11-20T12:08:05.192Z,3.60
2017-11-20T12:10:33.536Z,3.60
2017-11-20T12:13:01.846Z,3.70
2017-11-20T12:15:30.218Z,3.70
2017-11-20T12:17:58.660Z,3.70
2017-11-20T12:20:26.972Z,3.70
2017-11-20T12:22:55.280Z,3.70
2017-11-20T12:25:23.616Z,3.80
2017-11-20T12:27:52.908Z,3.80
2017-11-20T12:30:21.194Z,3.80
2017-11-20T12:32:49.508Z,3.80
2017-11-20T12:35:17.866Z,3.80
2017-11-20T12:37:46.932Z,3.80
2017-11-20T12:40:16.829Z,3.80
2017-11-20T12:42:45.925Z,3.80
2017-11-20T12:45:14.996Z,3.80
2017-11-20T12:47:43.291Z,3.80
2017-11-20T12:50:11.583Z,3.80
2017-11-20T12:52:39.908Z,3.90
2017-11-20T12:55:08.953Z,3.90
2017-11-20T12:57:37.254Z,3.80
2017-11-20T13:00:05.588Z,3.90
2017-11-20T13:02:33.912Z,3.90
2017-11-20T13:05:02.193Z,3.90
2017-11-20T13:07:30.538Z,3.90
2017-11-20T13:09:58.911Z,3.80
2017-11-20T13:12:27.239Z,3.80
2017-11-20T13:14:57.482Z,3.80
2017-11-20T13:17:25.797Z,3.80
2017-11-20T13:19:56.168Z,3.80
2017-11-20T13:22:24.456Z,3.80
2017-11-20T13:24:52.751Z,3.80
2017-11-20T13:27:21.083Z,3.80
2017-11-20T13:29:49.410Z,3.80
2017-11-20T13:32:17.746Z,3.90
2017-11-20T13:34:46.390Z,3.90
2017-11-20T13:37:15.145Z,3.90
2017-11-20T13:39:43.433Z,3.90
2017-11-20T13:42:11.789Z,3.90
2017-11-20T13:44:40.076Z,3.90
2017-11-20T13:47:08.357Z,3.90
2017-11-20T13:49:36.698Z,3.90
2017-11-20T13:52:04.991Z,3.90
2017-11-20T13:54:34.904Z,3.90
2017-11-20T13:57:03.272Z,3.90
2017-11-20T13:59:34.688Z,3.90
2017-11-20T14:02:03.759Z,4.00
2017-11-20T14:04:32.077Z,4.00
2017-11-20T14:07:00.384Z,4.00
2017-11-20T14:09:29.448Z,4.00
2017-11-20T14:11:57.739Z,3.90
2017-11-20T14:14:26.844Z,4.00
2017-11-20T14:16:55.133Z,4.00
2017-11-20T14:19:23.412Z,4.10
2017-11-20T14:21:51.770Z,4.00
2017-11-20T14:24:20.065Z,4.00
2017-11-20T14:26:48.352Z,4.00
2017-11-20T14:29:16.672Z,4.00
2017-11-20T14:31:45.812Z,4.00
2017-11-20T14:34:14.235Z,4.00
2017-11-20T14:36:43.292Z,4.00
2017-11-20T14:39:11.588Z,4.00
2017-11-20T14:41:39.913Z,4.10
2017-11-20T14:44:08.191Z,4.00
2017-11-20T14:46:37.284Z,4.00
2017-11-20T14:49:07.583Z,4.00
2017-11-20T14:54:31.475Z,4.00
2017-11-20T14:56:59.788Z,4.00
2017-11-20T14:59:28.093Z,3.90
2017-11-20T15:01:57.406Z,3.90
2017-11-20T15:04:25.741Z,3.90
2017-11-20T15:06:54.051Z,3.90
2017-11-20T15:09:22.370Z,3.90
2017-11-20T15:11:51.461Z,3.80
2017-11-20T15:14:19.783Z,3.80
2017-11-20T15:16:48.089Z,3.80
2017-11-20T15:19:16.420Z,3.70
2017-11-20T15:21:44.753Z,3.70
2017-11-20T15:24:13.111Z,3.60
2017-11-20T15:26:41.454Z,3.60
2017-11-20T15:29:09.756Z,3.70
2017-11-20T15:31:38.081Z,3.60
2017-11-20T15:34:06.424Z,3.70
2017-11-20T15:36:34.749Z,3.70
2017-11-20T15:39:03.815Z,3.70
2017-11-20T15:41:32.135Z,3.70
2017-11-20T15:44:00.477Z,3.70
2017-11-20T15:46:28.799Z,3.70
2017-11-20T15:48:57.862Z,3.70
2017-11-20T15:51:26.209Z,3.70
2017-11-20T15:53:54.604Z,3.60
2017-11-20T15:56:22.918Z,3.60
2017-11-20T15:58:51.227Z,3.60
2017-11-20T16:01:20.366Z,3.60
2017-11-20T16:03:49.433Z,3.70
2017-11-20T16:06:17.745Z,3.60
2017-11-20T16:08:46.059Z,3.60
2017-11-20T16:11:14.426Z,3.60
2017-11-20T16:13:42.730Z,3.60
2017-11-20T16:16:11.814Z,3.60
2017-11-20T16:18:40.133Z,3.60
2017-11-20T16:21:08.674Z,3.60
2017-11-20T16:23:36.988Z,3.60
2017-11-20T16:26:05.285Z,3.60
2017-11-20T16:28:33.615Z,3.60
2017-11-20T16:31:01.916Z,3.60
2017-11-20T16:33:31.021Z,3.60
2017-11-20T16:35:59.319Z,3.60
2017-11-20T16:38:28.360Z,3.60
2017-11-20T16:40:56.763Z,3.60
2017-11-20T16:43:25.187Z,3.60
2017-11-20T16:45:54.341Z,3.60
2017-11-20T16:48:23.433Z,3.70
2017-11-20T16:50:51.775Z,3.70
2017-11-20T16:53:20.106Z,3.60
2017-11-20T16:55:49.189Z,3.60
2017-11-20T16:58:35.411Z,3.60
2017-11-20T17:01:03.732Z,3.70
2017-11-20T17:03:32.860Z,3.70
2017-11-20T17:06:01.205Z,3.70
2017-11-20T17:08:29.509Z,3.60
2017-11-20T17:10:58.612Z,3.60
2017-11-20T17:13:26.944Z,3.60
2017-11-20T17:15:55.271Z,3.70
2017-11-20T17:18:24.580Z,3.70
2017-11-20T17:20:54.326Z,3.70
2017-11-20T17:23:22.761Z,3.60
2017-11-20T17:25:51.062Z,3.70
2017-11-20T17:28:19.365Z,3.70
2017-11-20T17:30:47.696Z,3.70
2017-11-20T17:33:16.884Z,3.70
2017-11-20T17:35:45.218Z,3.60
2017-11-20T17:38:13.527Z,3.70
2017-11-20T17:40:41.873Z,3.70
2017-11-20T17:43:10.217Z,3.70
2017-11-20T17:45:38.522Z,3.70
2017-11-20T17:48:06.838Z,3.70
2017-11-20T17:50:35.161Z,3.70
2017-11-20T17:53:04.227Z,3.70
2017-11-20T17:55:32.543Z,3.70
2017-11-20T17:58:00.863Z,3.70
2017-11-20T18:00:29.199Z,3.70
2017-11-20T18:02:57.525Z,3.70
2017-11-20T18:05:26.744Z,3.70
2017-11-20T18:07:56.009Z,3.70
2017-11-20T18:10:24.309Z,3.80
2017-11-20T18:12:53.417Z,3.80
2017-11-20T18:15:21.739Z,3.80
2017-11-20T18:17:50.065Z,3.80
2017-11-20T18:20:18.412Z,3.80
2017-11-20T18:22:46.713Z,3.80
2017-11-20T18:25:15.048Z,3.80
2017-11-20T18:27:44.124Z,3.90
2017-11-20T18:30:13.227Z,3.90
2017-11-20T18:32:41.527Z,3.90
2017-11-20T18:35:09.838Z,3.90
2017-11-20T18:37:38.222Z,3.80
2017-11-20T18:40:06.557Z,3.90
2017-11-20T18:42:34.987Z,4.00
2017-11-20T18:45:03.285Z,3.90
2017-11-20T18:47:31.686Z,3.90
2017-11-20T18:50:00.038Z,3.90
2017-11-20T18:52:28.340Z,3.90
2017-11-20T18:54:56.638Z,4.00
2017-11-20T18:57:24.992Z,3.90
2017-11-20T19:00:10.959Z,3.90
2017-11-20T19:02:49.981Z,3.90
2017-11-20T19:05:35.798Z,4.00
2017-11-20T19:08:21.688Z,4.00
2017-11-20T19:10:49.995Z,4.00
2017-11-20T19:13:19.093Z,4.00
2017-11-20T19:15:47.451Z,4.00
2017-11-20T19:18:15.785Z,4.00
2017-11-20T19:20:44.851Z,4.00
2017-11-20T19:23:13.195Z,4.00
2017-11-20T19:25:41.518Z,4.10
2017-11-20T19:28:09.892Z,4.10
2017-11-20T19:30:38.291Z,4.10
2017-11-20T19:33:06.627Z,4.10
2017-11-20T19:35:34.979Z,4.10
2017-11-20T19:38:03.337Z,4.10
2017-11-20T19:40:32.412Z,4.10
2017-11-20T19:43:00.850Z,4.10
2017-11-20T19:45:29.177Z,4.10
2017-11-20T19:47:57.501Z,4.10
2017-11-20T19:50:25.962Z,4.20
2017-11-20T19:52:54.301Z,4.20
2017-11-20T19:55:22.622Z,4.20
2017-11-20T19:57:50.929Z,4.20
2017-11-20T20:00:19.319Z,4.20
2017-11-20T20:02:47.702Z,4.20
2017-11-20T20:05:16.769Z,4.30
2017-11-20T20:07:45.132Z,4.30
2017-11-20T20:10:14.319Z,4.30
2017-11-20T20:12:43.433Z,4.30
2017-11-20T20:15:29.488Z,4.30
2017-11-20T20:17:57.840Z,4.40
2017-11-20T20:20:26.470Z,4.40
2017-11-20T20:22:54.781Z,4.40
2017-11-20T20:28:27.119Z,4.40
2017-11-20T20:30:55.446Z,4.50
2017-11-20T20:33:24.504Z,4.50
2017-11-20T20:35:52.829Z,4.50
2017-11-20T20:38:21.129Z,4.50
2017-11-20T20:40:49.471Z,4.50
2017-11-20T20:43:18.729Z,4.50
2017-11-20T20:45:47.790Z,4.50
2017-11-20T20:48:16.890Z,4.60
2017-11-20T20:50:45.234Z,4.50
2017-11-20T20:53:13.577Z,4.60
2017-11-20T20:55:41.879Z,4.60
2017-11-20T20:58:11.237Z,4.60
2017-11-20T21:00:40.301Z,4.70
2017-11-20T21:03:08.611Z,4.70
2017-11-20T21:05:36.942Z,4.70
2017-11-20T21:08:05.242Z,4.70
2017-11-20T21:10:39.122Z,4.70
2017-11-20T21:13:07.445Z,4.70
2017-11-20T21:15:35.754Z,4.80
2017-11-20T21:18:04.099Z,4.80
2017-11-20T21:20:33.165Z,4.90
2017-11-20T21:23:01.458Z,4.90
2017-11-20T21:25:29.790Z,5.00
2017-11-20T21:27:58.303Z,5.00
2017-11-20T21:30:26.590Z,5.10
2017-11-20T21:32:54.888Z,5.10
2017-11-20T21:35:23.256Z,5.20
2017-11-20T21:37:51.670Z,5.20
2017-11-20T21:40:20.726Z,5.20
2017-11-20T21:42:49.060Z,5.20
2017-11-20T21:45:17.409Z,5.20
2017-11-20T21:47:46.561Z,5.30
2017-11-20T21:50:14.988Z,5.30
2017-11-20T21:52:43.304Z,5.30
2017-11-20T21:55:11.608Z,5.30
2017-11-20T21:57:39.939Z,5.40
2017-11-20T22:00:09.004Z,5.50
2017-11-20T22:02:37.299Z,5.50
2017-11-20T22:05:05.814Z,5.60
2017-11-20T22:07:34.125Z,5.50
2017-11-20T22:10:02.463Z,5.50
2017-11-20T22:12:48.941Z,5.50
2017-11-20T22:15:17.336Z,5.50
2017-11-20T22:17:45.628Z,5.50
2017-11-20T22:20:13.959Z,5.50
2017-11-20T22:22:42.274Z,5.50
2017-11-20T22:25:10.571Z,5.50
2017-11-20T22:27:38.896Z,5.40
2017-11-20T22:30:07.198Z,5.40
2017-11-20T22:32:35.510Z,5.40
2017-11-20T22:35:03.833Z,5.40
2017-11-20T22:37:32.126Z,5.40
2017-11-20T22:40:00.420Z,5.40
2017-11-20T22:42:28.747Z,5.40
2017-11-20T22:44:57.045Z,5.50
2017-11-20T22:47:25.355Z,5.50
2017-11-20T22:49:53.685Z,5.50
2017-11-20T22:52:22.753Z,5.50
2017-11-20T22:54:51.045Z,5.50
2017-11-20T22:57:19.454Z,5.50
2017-11-20T22:59:47.784Z,5.60
2017-11-20T23:02:16.080Z,5.60
2017-11-20T23:04:44.596Z,5.60
2017-11-20T23:07:12.941Z,5.60
2017-11-20T23:09:42.007Z,5.60
2017-11-20T23:12:10.305Z,5.60
2017-11-20T23:14:38.629Z,5.60
2017-11-20T23:17:06.924Z,5.60
2017-11-20T23:19:35.211Z,5.70
2017-11-20T23:22:04.368Z,5.70
2017-11-20T23:24:32.654Z,5.70
2017-11-20T23:27:01.779Z,5.70
2017-11-20T23:29:30.076Z,5.70
2017-11-20T23:31:59.155Z,5.80
2017-11-20T23:34:28.219Z,5.70
2017-11-20T23:36:57.310Z,5.80
2017-11-20T23:39:25.604Z,5.80
2017-11-20T23:41:53.941Z,5.80
2017-11-20T23:44:22.267Z,5.80
2017-11-20T23:46:50.562Z,5.80
2017-11-20T23:49:18.882Z,5.80
2017-11-20T23:51:47.215Z,5.80
2017-11-20T23:57:13.631Z,5.80
2017-11-20T23:59:41.925Z,5.80
